Grand View, Canada
Current Conditions -  °F | °C
As of 9:00 AM on Friday 24 Oct 2014 (Local Time) from CYDN Reporting Station
Overcast Overcast  
Wind Chill: 52°   Ceiling: 12000
Heat Index: 52°   Visibility: 9mi
Dew Point: 43°   Wind: 12mph
Humidity: 71%   Direction: 250°WSW
Pressure: 29.59"   Gusts: NA
Location:  51.17°N, 100.7°W
Report Text: CYDN 241400Z AUTO 25010KT 9SM OVC120 11/06 A2959 RMK SLP027 DENSITY ALT 1100FT
Loading
Personal Weather Stations






























Interactive Weather Map
Tropical Storm Tracking
New forecast layout! Learn more

10-Day Weather Forecast

Advertisements
Track Severe Weather on mobile